sensor_id;sensor_type;location;lat;lon;timestamp;P1;durP1;ratioP1;P2;durP2;ratioP2
22320;SDS011;11328;53.928;18.522;2023-09-30T00:02:03;19.92;;;10.95;;
22320;SDS011;11328;53.928;18.522;2023-09-30T00:04:31;16.55;;;10.30;;
22320;SDS011;11328;53.928;18.522;2023-09-30T00:06:58;17.63;;;10.38;;
22320;SDS011;11328;53.928;18.522;2023-09-30T00:09:25;19.08;;;11.02;;
22320;SDS011;11328;53.928;18.522;2023-09-30T00:11:52;17.95;;;10.48;;
22320;SDS011;11328;53.928;18.522;2023-09-30T00:14:21;16.60;;;10.77;;
22320;SDS011;11328;53.928;18.522;2023-09-30T00:16:48;18.58;;;10.85;;
22320;SDS011;11328;53.928;18.522;2023-09-30T00:19:17;16.90;;;10.90;;
22320;SDS011;11328;53.928;18.522;2023-09-30T00:21:44;20.63;;;11.02;;
22320;SDS011;11328;53.928;18.522;2023-09-30T00:24:11;15.73;;;11.07;;
22320;SDS011;11328;53.928;18.522;2023-09-30T00:26:38;15.60;;;10.98;;
22320;SDS011;11328;53.928;18.522;2023-09-30T00:29:05;17.20;;;11.15;;
22320;SDS011;11328;53.928;18.522;2023-09-30T00:31:32;17.73;;;11.15;;
22320;SDS011;11328;53.928;18.522;2023-09-30T00:34:00;18.00;;;11.60;;
22320;SDS011;11328;53.928;18.522;2023-09-30T00:36:27;18.98;;;11.13;;
22320;SDS011;11328;53.928;18.522;2023-09-30T00:38:54;15.55;;;10.60;;
22320;SDS011;11328;53.928;18.522;2023-09-30T00:41:21;19.02;;;11.05;;
22320;SDS011;11328;53.928;18.522;2023-09-30T00:43:48;19.42;;;10.80;;
22320;SDS011;11328;53.928;18.522;2023-09-30T00:46:32;19.27;;;10.13;;
22320;SDS011;11328;53.928;18.522;2023-09-30T00:49:03;16.67;;;10.63;;
22320;SDS011;11328;53.928;18.522;2023-09-30T00:51:31;17.42;;;10.57;;
22320;SDS011;11328;53.928;18.522;2023-09-30T00:53:59;16.38;;;10.05;;
22320;SDS011;11328;53.928;18.522;2023-09-30T00:56:28;16.63;;;10.27;;
22320;SDS011;11328;53.928;18.522;2023-09-30T00:58:56;17.65;;;10.82;;
22320;SDS011;11328;53.928;18.522;2023-09-30T01:01:24;17.83;;;10.88;;
22320;SDS011;11328;53.928;18.522;2023-09-30T01:03:51;20.20;;;11.15;;
22320;SDS011;11328;53.928;18.522;2023-09-30T01:06:19;18.85;;;11.13;;
22320;SDS011;11328;53.928;18.522;2023-09-30T01:08:46;16.77;;;10.77;;
22320;SDS011;11328;53.928;18.522;2023-09-30T01:11:13;23.02;;;12.52;;
22320;SDS011;11328;53.928;18.522;2023-09-30T01:13:41;21.90;;;11.93;;
22320;SDS011;11328;53.928;18.522;2023-09-30T01:16:11;18.17;;;11.65;;
22320;SDS011;11328;53.928;18.522;2023-09-30T01:18:39;20.38;;;11.95;;
22320;SDS011;11328;53.928;18.522;2023-09-30T01:21:09;15.90;;;11.13;;
22320;SDS011;11328;53.928;18.522;2023-09-30T01:23:37;16.38;;;11.35;;
22320;SDS011;11328;53.928;18.522;2023-09-30T01:26:07;16.45;;;11.70;;
22320;SDS011;11328;53.928;18.522;2023-09-30T01:28:36;20.83;;;11.48;;
22320;SDS011;11328;53.928;18.522;2023-09-30T01:31:03;17.75;;;11.00;;
22320;SDS011;11328;53.928;18.522;2023-09-30T01:33:31;18.08;;;11.23;;
22320;SDS011;11328;53.928;18.522;2023-09-30T01:35:59;16.88;;;11.70;;
22320;SDS011;11328;53.928;18.522;2023-09-30T01:38:27;21.52;;;11.57;;
22320;SDS011;11328;53.928;18.522;2023-09-30T01:40:54;18.25;;;11.25;;
22320;SDS011;11328;53.928;18.522;2023-09-30T01:43:24;17.80;;;11.52;;
22320;SDS011;11328;53.928;18.522;2023-09-30T01:45:51;18.65;;;12.02;;
22320;SDS011;11328;53.928;18.522;2023-09-30T01:48:18;15.57;;;11.88;;
22320;SDS011;11328;53.928;18.522;2023-09-30T01:50:46;15.93;;;11.30;;
22320;SDS011;11328;53.928;18.522;2023-09-30T01:53:14;16.35;;;10.98;;
22320;SDS011;11328;53.928;18.522;2023-09-30T01:55:41;14.75;;;11.15;;
22320;SDS011;11328;53.928;18.522;2023-09-30T01:58:09;21.75;;;12.63;;
22320;SDS011;11328;53.928;18.522;2023-09-30T02:00:38;15.63;;;11.68;;
22320;SDS011;11328;53.928;18.522;2023-09-30T02:03:06;19.48;;;12.70;;
22320;SDS011;11328;53.928;18.522;2023-09-30T02:05:33;19.42;;;12.80;;
22320;SDS011;11328;53.928;18.522;2023-09-30T02:08:02;17.30;;;12.32;;
22320;SDS011;11328;53.928;18.522;2023-09-30T02:10:31;18.92;;;12.10;;
22320;SDS011;11328;53.928;18.522;2023-09-30T02:13:02;18.25;;;12.88;;
22320;SDS011;11328;53.928;18.522;2023-09-30T02:15:32;19.98;;;14.15;;
22320;SDS011;11328;53.928;18.522;2023-09-30T02:18:00;20.88;;;13.32;;
22320;SDS011;11328;53.928;18.522;2023-09-30T02:20:27;17.90;;;13.38;;
22320;SDS011;11328;53.928;18.522;2023-09-30T02:22:57;18.70;;;12.93;;
22320;SDS011;11328;53.928;18.522;2023-09-30T02:25:25;18.58;;;13.05;;
22320;SDS011;11328;53.928;18.522;2023-09-30T02:27:52;23.02;;;14.25;;
22320;SDS011;11328;53.928;18.522;2023-09-30T02:30:19;23.38;;;14.13;;
22320;SDS011;11328;53.928;18.522;2023-09-30T02:32:47;20.95;;;13.63;;
22320;SDS011;11328;53.928;18.522;2023-09-30T02:35:14;19.90;;;14.13;;
22320;SDS011;11328;53.928;18.522;2023-09-30T02:37:42;18.90;;;13.77;;
22320;SDS011;11328;53.928;18.522;2023-09-30T02:40:09;19.52;;;14.15;;
22320;SDS011;11328;53.928;18.522;2023-09-30T02:42:37;20.70;;;14.70;;
22320;SDS011;11328;53.928;18.522;2023-09-30T02:45:06;19.58;;;16.13;;
22320;SDS011;11328;53.928;18.522;2023-09-30T02:47:35;25.17;;;17.60;;
22320;SDS011;11328;53.928;18.522;2023-09-30T02:50:08;22.38;;;16.45;;
22320;SDS011;11328;53.928;18.522;2023-09-30T02:52:40;21.25;;;17.80;;
22320;SDS011;11328;53.928;18.522;2023-09-30T02:55:10;21.25;;;17.17;;
22320;SDS011;11328;53.928;18.522;2023-09-30T02:57:38;22.90;;;18.05;;
22320;SDS011;11328;53.928;18.522;2023-09-30T03:00:06;23.15;;;17.73;;
22320;SDS011;11328;53.928;18.522;2023-09-30T03:02:52;24.60;;;17.27;;
22320;SDS011;11328;53.928;18.522;2023-09-30T03:05:20;22.73;;;16.60;;
22320;SDS011;11328;53.928;18.522;2023-09-30T03:07:48;22.10;;;17.42;;
22320;SDS011;11328;53.928;18.522;2023-09-30T03:10:16;22.48;;;17.40;;
22320;SDS011;11328;53.928;18.522;2023-09-30T03:12:53;23.73;;;17.52;;
22320;SDS011;11328;53.928;18.522;2023-09-30T03:15:20;21.00;;;17.10;;
22320;SDS011;11328;53.928;18.522;2023-09-30T03:17:48;22.48;;;17.48;;
22320;SDS011;11328;53.928;18.522;2023-09-30T03:20:19;23.08;;;16.52;;
22320;SDS011;11328;53.928;18.522;2023-09-30T03:22:47;21.63;;;16.50;;
22320;SDS011;11328;53.928;18.522;2023-09-30T03:25:15;25.13;;;16.63;;
22320;SDS011;11328;53.928;18.522;2023-09-30T03:27:44;23.77;;;15.63;;
22320;SDS011;11328;53.928;18.522;2023-09-30T03:30:14;21.77;;;15.82;;
22320;SDS011;11328;53.928;18.522;2023-09-30T03:32:43;20.33;;;15.00;;
22320;SDS011;11328;53.928;18.522;2023-09-30T03:35:11;20.60;;;15.40;;
22320;SDS011;11328;53.928;18.522;2023-09-30T03:37:43;20.00;;;14.88;;
22320;SDS011;11328;53.928;18.522;2023-09-30T03:40:14;19.65;;;14.27;;
22320;SDS011;11328;53.928;18.522;2023-09-30T03:42:46;23.10;;;14.32;;
22320;SDS011;11328;53.928;18.522;2023-09-30T03:45:17;20.98;;;14.43;;
22320;SDS011;11328;53.928;18.522;2023-09-30T03:47:45;21.25;;;14.70;;
22320;SDS011;11328;53.928;18.522;2023-09-30T03:50:14;22.08;;;14.18;;
22320;SDS011;11328;53.928;18.522;2023-09-30T03:52:42;22.85;;;14.88;;
22320;SDS011;11328;53.928;18.522;2023-09-30T03:55:13;17.58;;;13.43;;
22320;SDS011;11328;53.928;18.522;2023-09-30T03:57:47;20.67;;;13.93;;
22320;SDS011;11328;53.928;18.522;2023-09-30T04:00:16;19.10;;;13.15;;
22320;SDS011;11328;53.928;18.522;2023-09-30T04:02:47;19.70;;;12.55;;
22320;SDS011;11328;53.928;18.522;2023-09-30T04:05:17;17.70;;;12.13;;
22320;SDS011;11328;53.928;18.522;2023-09-30T04:07:45;20.20;;;12.27;;
22320;SDS011;11328;53.928;18.522;2023-09-30T04:10:13;19.58;;;11.70;;
22320;SDS011;11328;53.928;18.522;2023-09-30T04:12:40;17.10;;;11.25;;
22320;SDS011;11328;53.928;18.522;2023-09-30T04:15:08;16.73;;;10.73;;
22320;SDS011;11328;53.928;18.522;2023-09-30T04:17:38;18.50;;;10.68;;
22320;SDS011;11328;53.928;18.522;2023-09-30T04:20:06;18.95;;;10.25;;
22320;SDS011;11328;53.928;18.522;2023-09-30T04:22:45;16.20;;;9.60;;
22320;SDS011;11328;53.928;18.522;2023-09-30T04:25:16;17.95;;;10.15;;
22320;SDS011;11328;53.928;18.522;2023-09-30T04:27:44;14.10;;;8.65;;
22320;SDS011;11328;53.928;18.522;2023-09-30T04:30:15;15.95;;;7.85;;
22320;SDS011;11328;53.928;18.522;2023-09-30T04:32:43;14.52;;;6.95;;
22320;SDS011;11328;53.928;18.522;2023-09-30T04:35:11;11.88;;;5.22;;
22320;SDS011;11328;53.928;18.522;2023-09-30T04:37:38;7.47;;;4.05;;
22320;SDS011;11328;53.928;18.522;2023-09-30T04:40:05;16.80;;;8.55;;
22320;SDS011;11328;53.928;18.522;2023-09-30T04:42:42;11.57;;;4.13;;
22320;SDS011;11328;53.928;18.522;2023-09-30T04:45:10;8.05;;;2.78;;
22320;SDS011;11328;53.928;18.522;2023-09-30T04:47:39;4.03;;;1.90;;
22320;SDS011;11328;53.928;18.522;2023-09-30T04:50:06;4.60;;;2.10;;
22320;SDS011;11328;53.928;18.522;2023-09-30T04:52:34;7.15;;;2.25;;
22320;SDS011;11328;53.928;18.522;2023-09-30T04:55:02;6.60;;;2.08;;
22320;SDS011;11328;53.928;18.522;2023-09-30T04:57:31;7.97;;;2.17;;
22320;SDS011;11328;53.928;18.522;2023-09-30T04:59:58;8.15;;;2.00;;
22320;SDS011;11328;53.928;18.522;2023-09-30T05:02:26;8.20;;;2.00;;
22320;SDS011;11328;53.928;18.522;2023-09-30T05:04:54;6.45;;;2.10;;
22320;SDS011;11328;53.928;18.522;2023-09-30T05:07:21;6.38;;;1.90;;
22320;SDS011;11328;53.928;18.522;2023-09-30T05:09:48;8.25;;;2.28;;
22320;SDS011;11328;53.928;18.522;2023-09-30T05:12:15;11.10;;;2.70;;
22320;SDS011;11328;53.928;18.522;2023-09-30T05:14:42;11.27;;;2.50;;
22320;SDS011;11328;53.928;18.522;2023-09-30T05:17:09;8.77;;;2.50;;
22320;SDS011;11328;53.928;18.522;2023-09-30T05:19:37;10.75;;;2.83;;
22320;SDS011;11328;53.928;18.522;2023-09-30T05:22:04;13.50;;;3.15;;
22320;SDS011;11328;53.928;18.522;2023-09-30T05:24:31;8.77;;;2.78;;
22320;SDS011;11328;53.928;18.522;2023-09-30T05:26:58;12.63;;;3.47;;
22320;SDS011;11328;53.928;18.522;2023-09-30T05:29:25;12.80;;;3.10;;
22320;SDS011;11328;53.928;18.522;2023-09-30T05:31:52;10.68;;;2.88;;
22320;SDS011;11328;53.928;18.522;2023-09-30T05:34:19;9.38;;;3.08;;
22320;SDS011;11328;53.928;18.522;2023-09-30T05:36:46;13.65;;;3.20;;
22320;SDS011;11328;53.928;18.522;2023-09-30T05:39:15;14.75;;;3.38;;
22320;SDS011;11328;53.928;18.522;2023-09-30T05:41:46;16.05;;;4.30;;
22320;SDS011;11328;53.928;18.522;2023-09-30T05:44:13;14.38;;;3.30;;
22320;SDS011;11328;53.928;18.522;2023-09-30T05:46:40;10.90;;;3.20;;
22320;SDS011;11328;53.928;18.522;2023-09-30T05:49:09;14.65;;;3.80;;
22320;SDS011;11328;53.928;18.522;2023-09-30T05:51:40;14.40;;;3.40;;
22320;SDS011;11328;53.928;18.522;2023-09-30T05:54:07;14.32;;;3.20;;
22320;SDS011;11328;53.928;18.522;2023-09-30T05:56:36;12.05;;;3.35;;
22320;SDS011;11328;53.928;18.522;2023-09-30T05:59:04;12.07;;;3.10;;
22320;SDS011;11328;53.928;18.522;2023-09-30T06:01:32;11.98;;;3.60;;
22320;SDS011;11328;53.928;18.522;2023-09-30T06:03:59;15.13;;;3.75;;
22320;SDS011;11328;53.928;18.522;2023-09-30T06:06:27;12.23;;;3.65;;
22320;SDS011;11328;53.928;18.522;2023-09-30T06:08:57;13.75;;;3.85;;
22320;SDS011;11328;53.928;18.522;2023-09-30T06:11:24;13.68;;;3.67;;
22320;SDS011;11328;53.928;18.522;2023-09-30T06:13:54;13.57;;;3.40;;
22320;SDS011;11328;53.928;18.522;2023-09-30T06:16:25;16.30;;;4.20;;
22320;SDS011;11328;53.928;18.522;2023-09-30T06:18:53;12.10;;;3.20;;
22320;SDS011;11328;53.928;18.522;2023-09-30T06:21:21;11.00;;;3.22;;
22320;SDS011;11328;53.928;18.522;2023-09-30T06:23:51;10.80;;;3.35;;
22320;SDS011;11328;53.928;18.522;2023-09-30T06:26:18;15.85;;;3.60;;
22320;SDS011;11328;53.928;18.522;2023-09-30T06:28:47;12.98;;;3.55;;
22320;SDS011;11328;53.928;18.522;2023-09-30T06:31:14;19.75;;;4.38;;
22320;SDS011;11328;53.928;18.522;2023-09-30T06:33:42;16.80;;;3.85;;
22320;SDS011;11328;53.928;18.522;2023-09-30T06:36:10;16.95;;;4.10;;
22320;SDS011;11328;53.928;18.522;2023-09-30T06:38:41;11.95;;;3.40;;
22320;SDS011;11328;53.928;18.522;2023-09-30T06:41:15;11.82;;;3.65;;
22320;SDS011;11328;53.928;18.522;2023-09-30T06:43:43;16.23;;;3.70;;
22320;SDS011;11328;53.928;18.522;2023-09-30T06:46:10;12.40;;;3.70;;
22320;SDS011;11328;53.928;18.522;2023-09-30T06:48:39;15.50;;;3.13;;
22320;SDS011;11328;53.928;18.522;2023-09-30T06:51:07;15.05;;;3.72;;
22320;SDS011;11328;53.928;18.522;2023-09-30T06:53:39;11.70;;;3.67;;
22320;SDS011;11328;53.928;18.522;2023-09-30T06:56:06;13.85;;;3.92;;
22320;SDS011;11328;53.928;18.522;2023-09-30T06:58:33;14.25;;;4.35;;
22320;SDS011;11328;53.928;18.522;2023-09-30T07:01:01;12.07;;;3.83;;
22320;SDS011;11328;53.928;18.522;2023-09-30T07:03:28;13.43;;;3.72;;
22320;SDS011;11328;53.928;18.522;2023-09-30T07:05:56;12.00;;;3.47;;
22320;SDS011;11328;53.928;18.522;2023-09-30T07:08:29;16.25;;;3.70;;
22320;SDS011;11328;53.928;18.522;2023-09-30T07:10:56;13.88;;;3.45;;
22320;SDS011;11328;53.928;18.522;2023-09-30T07:13:23;14.43;;;3.35;;
22320;SDS011;11328;53.928;18.522;2023-09-30T07:15:50;17.27;;;3.53;;
22320;SDS011;11328;53.928;18.522;2023-09-30T07:18:18;11.02;;;3.63;;
22320;SDS011;11328;53.928;18.522;2023-09-30T07:20:45;21.55;;;4.55;;
22320;SDS011;11328;53.928;18.522;2023-09-30T07:23:12;16.27;;;4.10;;
22320;SDS011;11328;53.928;18.522;2023-09-30T07:25:45;15.07;;;4.05;;
22320;SDS011;11328;53.928;18.522;2023-09-30T07:28:14;16.88;;;4.25;;
22320;SDS011;11328;53.928;18.522;2023-09-30T07:30:41;12.68;;;3.75;;
22320;SDS011;11328;53.928;18.522;2023-09-30T07:33:08;16.30;;;4.97;;
22320;SDS011;11328;53.928;18.522;2023-09-30T07:35:35;21.45;;;4.00;;
22320;SDS011;11328;53.928;18.522;2023-09-30T07:38:05;17.42;;;4.47;;
22320;SDS011;11328;53.928;18.522;2023-09-30T07:40:32;18.67;;;4.30;;
22320;SDS011;11328;53.928;18.522;2023-09-30T07:42:59;14.75;;;3.75;;
22320;SDS011;11328;53.928;18.522;2023-09-30T07:45:26;16.20;;;4.18;;
22320;SDS011;11328;53.928;18.522;2023-09-30T07:47:54;15.07;;;3.90;;
22320;SDS011;11328;53.928;18.522;2023-09-30T07:50:21;17.33;;;4.70;;
22320;SDS011;11328;53.928;18.522;2023-09-30T07:52:48;14.30;;;3.95;;
22320;SDS011;11328;53.928;18.522;2023-09-30T07:55:16;17.05;;;4.32;;
22320;SDS011;11328;53.928;18.522;2023-09-30T07:57:43;11.60;;;3.78;;
22320;SDS011;11328;53.928;18.522;2023-09-30T08:00:10;19.08;;;5.20;;
22320;SDS011;11328;53.928;18.522;2023-09-30T08:02:42;19.00;;;4.88;;
22320;SDS011;11328;53.928;18.522;2023-09-30T08:05:10;16.75;;;4.38;;
22320;SDS011;11328;53.928;18.522;2023-09-30T08:07:38;13.82;;;3.92;;
22320;SDS011;11328;53.928;18.522;2023-09-30T08:10:05;14.68;;;4.20;;
22320;SDS011;11328;53.928;18.522;2023-09-30T08:12:39;17.08;;;4.03;;
22320;SDS011;11328;53.928;18.522;2023-09-30T08:15:08;12.30;;;3.95;;
22320;SDS011;11328;53.928;18.522;2023-09-30T08:17:38;15.50;;;4.35;;
22320;SDS011;11328;53.928;18.522;2023-09-30T08:20:06;13.20;;;3.50;;
22320;SDS011;11328;53.928;18.522;2023-09-30T08:22:37;13.57;;;3.83;;
22320;SDS011;11328;53.928;18.522;2023-09-30T08:25:05;16.85;;;4.38;;
22320;SDS011;11328;53.928;18.522;2023-09-30T08:27:32;15.05;;;4.20;;
22320;SDS011;11328;53.928;18.522;2023-09-30T08:30:00;16.92;;;4.43;;
22320;SDS011;11328;53.928;18.522;2023-09-30T08:32:34;17.48;;;4.55;;
22320;SDS011;11328;53.928;18.522;2023-09-30T08:35:02;20.48;;;4.20;;
22320;SDS011;11328;53.928;18.522;2023-09-30T08:37:30;14.82;;;3.70;;
22320;SDS011;11328;53.928;18.522;2023-09-30T08:39:57;18.90;;;3.97;;
22320;SDS011;11328;53.928;18.522;2023-09-30T08:42:25;14.43;;;4.05;;
22320;SDS011;11328;53.928;18.522;2023-09-30T08:44:59;15.25;;;3.78;;
22320;SDS011;11328;53.928;18.522;2023-09-30T08:47:27;12.82;;;3.90;;
22320;SDS011;11328;53.928;18.522;2023-09-30T08:49:58;17.75;;;3.88;;
22320;SDS011;11328;53.928;18.522;2023-09-30T08:52:33;11.85;;;3.20;;
22320;SDS011;11328;53.928;18.522;2023-09-30T08:55:06;14.65;;;3.90;;
22320;SDS011;11328;53.928;18.522;2023-09-30T08:57:44;30.65;;;4.57;;
22320;SDS011;11328;53.928;18.522;2023-09-30T09:00:12;12.95;;;3.25;;
22320;SDS011;11328;53.928;18.522;2023-09-30T09:02:41;16.75;;;3.88;;
22320;SDS011;11328;53.928;18.522;2023-09-30T09:05:09;12.82;;;3.47;;
22320;SDS011;11328;53.928;18.522;2023-09-30T09:07:38;12.60;;;3.13;;
22320;SDS011;11328;53.928;18.522;2023-09-30T09:10:06;15.13;;;3.00;;
22320;SDS011;11328;53.928;18.522;2023-09-30T09:12:37;13.18;;;3.53;;
22320;SDS011;11328;53.928;18.522;2023-09-30T09:15:19;13.95;;;2.92;;
22320;SDS011;11328;53.928;18.522;2023-09-30T09:17:49;11.52;;;2.90;;
22320;SDS011;11328;53.928;18.522;2023-09-30T09:20:19;10.27;;;3.97;;
22320;SDS011;11328;53.928;18.522;2023-09-30T09:22:49;11.70;;;3.28;;
22320;SDS011;11328;53.928;18.522;2023-09-30T09:25:21;9.88;;;2.83;;
22320;SDS011;11328;53.928;18.522;2023-09-30T09:27:50;13.13;;;2.97;;
22320;SDS011;11328;53.928;18.522;2023-09-30T09:30:22;12.75;;;3.28;;
22320;SDS011;11328;53.928;18.522;2023-09-30T09:32:54;11.40;;;3.23;;
22320;SDS011;11328;53.928;18.522;2023-09-30T09:35:27;11.55;;;3.08;;
22320;SDS011;11328;53.928;18.522;2023-09-30T09:38:00;17.17;;;3.28;;
22320;SDS011;11328;53.928;18.522;2023-09-30T09:40:31;16.38;;;3.47;;
22320;SDS011;11328;53.928;18.522;2023-09-30T09:43:01;11.48;;;2.70;;
22320;SDS011;11328;53.928;18.522;2023-09-30T09:45:33;13.03;;;3.23;;
22320;SDS011;11328;53.928;18.522;2023-09-30T09:48:03;13.55;;;3.03;;
22320;SDS011;11328;53.928;18.522;2023-09-30T09:50:31;11.43;;;3.10;;
22320;SDS011;11328;53.928;18.522;2023-09-30T09:52:59;17.33;;;3.63;;
22320;SDS011;11328;53.928;18.522;2023-09-30T09:55:29;16.20;;;3.22;;
22320;SDS011;11328;53.928;18.522;2023-09-30T09:57:56;16.75;;;3.67;;
22320;SDS011;11328;53.928;18.522;2023-09-30T10:00:26;15.82;;;3.20;;
22320;SDS011;11328;53.928;18.522;2023-09-30T10:02:53;16.27;;;3.40;;
22320;SDS011;11328;53.928;18.522;2023-09-30T10:05:21;13.68;;;2.97;;
22320;SDS011;11328;53.928;18.522;2023-09-30T10:07:55;14.18;;;2.95;;
22320;SDS011;11328;53.928;18.522;2023-09-30T10:10:26;11.57;;;3.35;;
22320;SDS011;11328;53.928;18.522;2023-09-30T10:12:54;11.15;;;2.90;;
22320;SDS011;11328;53.928;18.522;2023-09-30T10:17:58;11.73;;;2.90;;
22320;SDS011;11328;53.928;18.522;2023-09-30T10:20:39;10.43;;;3.13;;
22320;SDS011;11328;53.928;18.522;2023-09-30T10:23:23;11.57;;;3.40;;
22320;SDS011;11328;53.928;18.522;2023-09-30T10:25:54;12.40;;;3.47;;
22320;SDS011;11328;53.928;18.522;2023-09-30T10:28:44;10.68;;;3.35;;
22320;SDS011;11328;53.928;18.522;2023-09-30T10:31:17;12.63;;;3.70;;
22320;SDS011;11328;53.928;18.522;2023-09-30T10:36:40;13.68;;;3.65;;
22320;SDS011;11328;53.928;18.522;2023-09-30T10:39:11;14.18;;;3.40;;
22320;SDS011;11328;53.928;18.522;2023-09-30T10:46:53;15.45;;;3.08;;
22320;SDS011;11328;53.928;18.522;2023-09-30T10:51:55;13.13;;;3.05;;
22320;SDS011;11328;53.928;18.522;2023-09-30T10:54:24;12.80;;;3.28;;
22320;SDS011;11328;53.928;18.522;2023-09-30T10:56:58;14.18;;;3.47;;
22320;SDS011;11328;53.928;18.522;2023-09-30T10:59:28;11.73;;;2.92;;
22320;SDS011;11328;53.928;18.522;2023-09-30T11:02:01;14.80;;;2.83;;
22320;SDS011;11328;53.928;18.522;2023-09-30T11:04:29;12.85;;;3.08;;
22320;SDS011;11328;53.928;18.522;2023-09-30T11:06:57;13.10;;;2.67;;
22320;SDS011;11328;53.928;18.522;2023-09-30T11:09:28;12.48;;;3.15;;
22320;SDS011;11328;53.928;18.522;2023-09-30T11:11:55;16.23;;;3.55;;
22320;SDS011;11328;53.928;18.522;2023-09-30T11:14:26;12.32;;;3.13;;
22320;SDS011;11328;53.928;18.522;2023-09-30T11:16:59;11.48;;;2.92;;
22320;SDS011;11328;53.928;18.522;2023-09-30T11:19:37;14.07;;;3.33;;
22320;SDS011;11328;53.928;18.522;2023-09-30T11:22:17;10.65;;;2.95;;
22320;SDS011;11328;53.928;18.522;2023-09-30T11:24:44;14.70;;;3.45;;
22320;SDS011;11328;53.928;18.522;2023-09-30T11:27:12;12.07;;;3.30;;
22320;SDS011;11328;53.928;18.522;2023-09-30T11:29:48;15.98;;;3.92;;
22320;SDS011;11328;53.928;18.522;2023-09-30T11:32:25;16.25;;;3.10;;
22320;SDS011;11328;53.928;18.522;2023-09-30T11:34:55;16.55;;;3.63;;
22320;SDS011;11328;53.928;18.522;2023-09-30T11:37:23;18.67;;;5.80;;
22320;SDS011;11328;53.928;18.522;2023-09-30T11:39:50;20.17;;;4.28;;
22320;SDS011;11328;53.928;18.522;2023-09-30T11:42:17;13.10;;;3.80;;
22320;SDS011;11328;53.928;18.522;2023-09-30T11:44:46;10.82;;;3.25;;
22320;SDS011;11328;53.928;18.522;2023-09-30T11:47:15;11.85;;;3.92;;
22320;SDS011;11328;53.928;18.522;2023-09-30T11:49:43;14.82;;;3.35;;
22320;SDS011;11328;53.928;18.522;2023-09-30T11:52:11;12.50;;;3.58;;
22320;SDS011;11328;53.928;18.522;2023-09-30T11:54:42;18.15;;;3.60;;
22320;SDS011;11328;53.928;18.522;2023-09-30T11:57:11;16.45;;;3.65;;
22320;SDS011;11328;53.928;18.522;2023-09-30T11:59:45;12.27;;;3.25;;
22320;SDS011;11328;53.928;18.522;2023-09-30T12:02:14;12.27;;;3.28;;
22320;SDS011;11328;53.928;18.522;2023-09-30T12:04:44;14.73;;;3.22;;
22320;SDS011;11328;53.928;18.522;2023-09-30T12:07:15;10.90;;;2.85;;
22320;SDS011;11328;53.928;18.522;2023-09-30T12:09:42;14.80;;;3.60;;
22320;SDS011;11328;53.928;18.522;2023-09-30T12:12:09;16.80;;;3.58;;
22320;SDS011;11328;53.928;18.522;2023-09-30T12:14:38;16.52;;;3.25;;
22320;SDS011;11328;53.928;18.522;2023-09-30T12:17:06;13.02;;;4.13;;
22320;SDS011;11328;53.928;18.522;2023-09-30T12:19:38;17.33;;;3.77;;
22320;SDS011;11328;53.928;18.522;2023-09-30T12:22:06;17.25;;;3.65;;
22320;SDS011;11328;53.928;18.522;2023-09-30T12:24:33;15.55;;;3.28;;
22320;SDS011;11328;53.928;18.522;2023-09-30T12:27:00;17.48;;;3.30;;
22320;SDS011;11328;53.928;18.522;2023-09-30T12:29:28;16.15;;;3.28;;
22320;SDS011;11328;53.928;18.522;2023-09-30T12:31:55;18.40;;;3.78;;
22320;SDS011;11328;53.928;18.522;2023-09-30T12:34:22;16.20;;;3.53;;
22320;SDS011;11328;53.928;18.522;2023-09-30T12:36:52;15.27;;;3.42;;
22320;SDS011;11328;53.928;18.522;2023-09-30T12:39:20;12.68;;;3.10;;
22320;SDS011;11328;53.928;18.522;2023-09-30T12:41:51;12.73;;;3.63;;
22320;SDS011;11328;53.928;18.522;2023-09-30T12:44:18;16.83;;;3.72;;
22320;SDS011;11328;53.928;18.522;2023-09-30T12:46:46;17.10;;;3.70;;
22320;SDS011;11328;53.928;18.522;2023-09-30T12:49:13;12.77;;;3.20;;
22320;SDS011;11328;53.928;18.522;2023-09-30T12:51:40;18.40;;;3.90;;
22320;SDS011;11328;53.928;18.522;2023-09-30T12:54:08;11.73;;;3.67;;
22320;SDS011;11328;53.928;18.522;2023-09-30T12:56:37;15.40;;;4.03;;
22320;SDS011;11328;53.928;18.522;2023-09-30T12:59:04;12.68;;;3.33;;
22320;SDS011;11328;53.928;18.522;2023-09-30T13:01:31;16.23;;;3.22;;
22320;SDS011;11328;53.928;18.522;2023-09-30T13:04:01;15.93;;;3.80;;
22320;SDS011;11328;53.928;18.522;2023-09-30T13:06:29;12.45;;;4.10;;
22320;SDS011;11328;53.928;18.522;2023-09-30T13:08:59;13.02;;;3.28;;
22320;SDS011;11328;53.928;18.522;2023-09-30T13:11:26;12.95;;;3.40;;
22320;SDS011;11328;53.928;18.522;2023-09-30T13:13:54;13.45;;;3.35;;
22320;SDS011;11328;53.928;18.522;2023-09-30T13:16:21;15.63;;;3.72;;
22320;SDS011;11328;53.928;18.522;2023-09-30T13:18:49;13.10;;;3.10;;
22320;SDS011;11328;53.928;18.522;2023-09-30T13:21:18;17.40;;;4.15;;
22320;SDS011;11328;53.928;18.522;2023-09-30T13:23:46;11.40;;;3.40;;
22320;SDS011;11328;53.928;18.522;2023-09-30T13:26:13;13.32;;;3.75;;
22320;SDS011;11328;53.928;18.522;2023-09-30T13:28:40;17.17;;;3.72;;
22320;SDS011;11328;53.928;18.522;2023-09-30T13:31:07;16.60;;;3.67;;
22320;SDS011;11328;53.928;18.522;2023-09-30T13:33:35;17.92;;;4.20;;
22320;SDS011;11328;53.928;18.522;2023-09-30T13:36:02;17.50;;;4.07;;
22320;SDS011;11328;53.928;18.522;2023-09-30T13:38:29;14.70;;;3.38;;
22320;SDS011;11328;53.928;18.522;2023-09-30T13:40:56;11.20;;;3.47;;
22320;SDS011;11328;53.928;18.522;2023-09-30T13:43:23;16.20;;;3.53;;
22320;SDS011;11328;53.928;18.522;2023-09-30T13:45:50;16.95;;;3.80;;
22320;SDS011;11328;53.928;18.522;2023-09-30T13:48:17;10.50;;;3.05;;
22320;SDS011;11328;53.928;18.522;2023-09-30T13:50:44;17.25;;;4.05;;
22320;SDS011;11328;53.928;18.522;2023-09-30T13:53:12;14.32;;;3.70;;
22320;SDS011;11328;53.928;18.522;2023-09-30T13:55:39;15.57;;;3.63;;
22320;SDS011;11328;53.928;18.522;2023-09-30T13:58:06;16.05;;;4.63;;
22320;SDS011;11328;53.928;18.522;2023-09-30T14:00:33;11.80;;;3.30;;
22320;SDS011;11328;53.928;18.522;2023-09-30T14:03:00;15.90;;;3.60;;
22320;SDS011;11328;53.928;18.522;2023-09-30T14:05:27;13.38;;;3.38;;
22320;SDS011;11328;53.928;18.522;2023-09-30T14:07:54;23.38;;;3.78;;
22320;SDS011;11328;53.928;18.522;2023-09-30T14:10:21;12.85;;;3.22;;
22320;SDS011;11328;53.928;18.522;2023-09-30T14:12:49;10.77;;;3.10;;
22320;SDS011;11328;53.928;18.522;2023-09-30T14:15:16;14.95;;;4.07;;
22320;SDS011;11328;53.928;18.522;2023-09-30T14:17:43;10.32;;;3.20;;
22320;SDS011;11328;53.928;18.522;2023-09-30T14:20:11;17.88;;;3.95;;
22320;SDS011;11328;53.928;18.522;2023-09-30T14:22:39;13.05;;;3.53;;
22320;SDS011;11328;53.928;18.522;2023-09-30T14:25:06;13.88;;;3.67;;
22320;SDS011;11328;53.928;18.522;2023-09-30T14:27:34;14.90;;;3.70;;
22320;SDS011;11328;53.928;18.522;2023-09-30T14:30:01;13.68;;;3.28;;
22320;SDS011;11328;53.928;18.522;2023-09-30T14:32:34;13.18;;;3.40;;
22320;SDS011;11328;53.928;18.522;2023-09-30T14:35:01;12.05;;;3.15;;
22320;SDS011;11328;53.928;18.522;2023-09-30T14:37:32;10.23;;;2.97;;
22320;SDS011;11328;53.928;18.522;2023-09-30T14:39:59;11.93;;;2.90;;
22320;SDS011;11328;53.928;18.522;2023-09-30T14:42:26;12.45;;;3.25;;